sensor_id;sensor_type;location;lat;lon;timestamp;P1;durP1;ratioP1;P2;durP2;ratioP2
71042;SDS011;58696;52.134;5.500;2023-03-01T00:01:18;9.63;;;6.13;;
71042;SDS011;58696;52.134;5.500;2023-03-01T00:03:50;8.82;;;5.90;;
71042;SDS011;58696;52.134;5.500;2023-03-01T00:06:20;12.00;;;6.03;;
71042;SDS011;58696;52.134;5.500;2023-03-01T00:08:49;8.07;;;5.75;;
71042;SDS011;58696;52.134;5.500;2023-03-01T00:11:20;11.18;;;5.28;;
71042;SDS011;58696;52.134;5.500;2023-03-01T00:13:48;10.02;;;5.65;;
71042;SDS011;58696;52.134;5.500;2023-03-01T00:16:20;9.40;;;4.95;;
71042;SDS011;58696;52.134;5.500;2023-03-01T00:18:51;10.40;;;5.32;;
71042;SDS011;58696;52.134;5.500;2023-03-01T00:21:18;7.20;;;5.32;;
71042;SDS011;58696;52.134;5.500;2023-03-01T00:26:15;8.60;;;5.05;;
71042;SDS011;58696;52.134;5.500;2023-03-01T00:28:43;8.02;;;5.35;;
71042;SDS011;58696;52.134;5.500;2023-03-01T00:31:12;6.57;;;4.82;;
71042;SDS011;58696;52.134;5.500;2023-03-01T00:33:51;7.07;;;5.07;;
71042;SDS011;58696;52.134;5.500;2023-03-01T00:36:19;5.72;;;4.82;;
71042;SDS011;58696;52.134;5.500;2023-03-01T00:38:46;9.23;;;5.15;;
71042;SDS011;58696;52.134;5.500;2023-03-01T00:41:15;6.95;;;5.32;;
71042;SDS011;58696;52.134;5.500;2023-03-01T00:43:43;8.75;;;4.75;;
71042;SDS011;58696;52.134;5.500;2023-03-01T00:46:11;8.18;;;5.28;;
71042;SDS011;58696;52.134;5.500;2023-03-01T00:48:39;7.55;;;5.18;;
71042;SDS011;58696;52.134;5.500;2023-03-01T00:51:07;9.80;;;5.88;;
71042;SDS011;58696;52.134;5.500;2023-03-01T00:53:38;12.65;;;5.82;;
71042;SDS011;58696;52.134;5.500;2023-03-01T00:56:05;13.98;;;6.00;;
71042;SDS011;58696;52.134;5.500;2023-03-01T00:58:35;13.20;;;5.85;;
71042;SDS011;58696;52.134;5.500;2023-03-01T01:01:17;8.85;;;6.20;;
71042;SDS011;58696;52.134;5.500;2023-03-01T01:06:17;13.07;;;6.57;;
71042;SDS011;58696;52.134;5.500;2023-03-01T01:08:45;8.02;;;6.15;;
71042;SDS011;58696;52.134;5.500;2023-03-01T01:11:12;11.20;;;6.95;;
71042;SDS011;58696;52.134;5.500;2023-03-01T01:13:39;13.33;;;6.77;;
71042;SDS011;58696;52.134;5.500;2023-03-01T01:16:07;11.27;;;6.55;;
71042;SDS011;58696;52.134;5.500;2023-03-01T01:18:34;12.97;;;6.40;;
71042;SDS011;58696;52.134;5.500;2023-03-01T01:21:09;14.13;;;6.47;;
71042;SDS011;58696;52.134;5.500;2023-03-01T01:23:38;10.07;;;6.75;;
71042;SDS011;58696;52.134;5.500;2023-03-01T01:26:10;9.45;;;6.70;;
71042;SDS011;58696;52.134;5.500;2023-03-01T01:28:41;13.43;;;6.82;;
71042;SDS011;58696;52.134;5.500;2023-03-01T01:31:10;9.80;;;6.43;;
71042;SDS011;58696;52.134;5.500;2023-03-01T01:33:39;10.48;;;6.38;;
71042;SDS011;58696;52.134;5.500;2023-03-01T01:36:06;10.68;;;6.13;;
71042;SDS011;58696;52.134;5.500;2023-03-01T01:38:34;13.13;;;7.35;;
71042;SDS011;58696;52.134;5.500;2023-03-01T01:41:02;10.90;;;6.65;;
71042;SDS011;58696;52.134;5.500;2023-03-01T01:43:36;10.25;;;6.90;;
71042;SDS011;58696;52.134;5.500;2023-03-01T01:46:14;12.88;;;7.05;;
71042;SDS011;58696;52.134;5.500;2023-03-01T01:48:52;15.80;;;7.15;;
71042;SDS011;58696;52.134;5.500;2023-03-01T01:51:24;11.15;;;7.32;;
71042;SDS011;58696;52.134;5.500;2023-03-01T01:54:14;10.85;;;6.90;;
71042;SDS011;58696;52.134;5.500;2023-03-01T01:56:47;9.85;;;6.40;;
71042;SDS011;58696;52.134;5.500;2023-03-01T01:59:21;10.93;;;7.05;;
71042;SDS011;58696;52.134;5.500;2023-03-01T02:01:51;12.02;;;6.82;;
71042;SDS011;58696;52.134;5.500;2023-03-01T02:04:21;10.95;;;7.13;;
71042;SDS011;58696;52.134;5.500;2023-03-01T02:06:58;12.75;;;7.10;;
71042;SDS011;58696;52.134;5.500;2023-03-01T02:09:47;15.07;;;7.20;;
71042;SDS011;58696;52.134;5.500;2023-03-01T02:12:20;10.45;;;7.10;;
71042;SDS011;58696;52.134;5.500;2023-03-01T02:14:52;9.55;;;6.65;;
71042;SDS011;58696;52.134;5.500;2023-03-01T02:17:19;11.88;;;7.00;;
71042;SDS011;58696;52.134;5.500;2023-03-01T02:22:35;15.05;;;6.82;;
71042;SDS011;58696;52.134;5.500;2023-03-01T02:25:11;10.40;;;7.38;;
71042;SDS011;58696;52.134;5.500;2023-03-01T02:27:54;10.80;;;6.68;;
71042;SDS011;58696;52.134;5.500;2023-03-01T02:30:24;11.48;;;6.93;;
71042;SDS011;58696;52.134;5.500;2023-03-01T02:32:56;10.90;;;7.32;;
71042;SDS011;58696;52.134;5.500;2023-03-01T02:35:30;10.30;;;7.15;;
71042;SDS011;58696;52.134;5.500;2023-03-01T02:38:03;15.30;;;6.35;;
71042;SDS011;58696;52.134;5.500;2023-03-01T02:40:35;10.98;;;7.25;;
71042;SDS011;58696;52.134;5.500;2023-03-01T02:43:07;13.50;;;7.05;;
71042;SDS011;58696;52.134;5.500;2023-03-01T02:45:36;12.30;;;7.72;;
71042;SDS011;58696;52.134;5.500;2023-03-01T02:48:03;11.05;;;7.00;;
71042;SDS011;58696;52.134;5.500;2023-03-01T02:50:58;11.82;;;7.38;;
71042;SDS011;58696;52.134;5.500;2023-03-01T02:53:53;8.43;;;5.28;;
71042;SDS011;58696;52.134;5.500;2023-03-01T02:56:29;9.50;;;6.00;;
71042;SDS011;58696;52.134;5.500;2023-03-01T02:58:58;7.70;;;5.70;;
71042;SDS011;58696;52.134;5.500;2023-03-01T03:01:27;10.18;;;6.10;;
71042;SDS011;58696;52.134;5.500;2023-03-01T03:04:05;9.82;;;6.70;;
71042;SDS011;58696;52.134;5.500;2023-03-01T03:06:38;10.18;;;5.95;;
71042;SDS011;58696;52.134;5.500;2023-03-01T03:09:05;9.88;;;6.32;;
71042;SDS011;58696;52.134;5.500;2023-03-01T03:11:35;9.60;;;6.30;;
71042;SDS011;58696;52.134;5.500;2023-03-01T03:14:07;9.18;;;5.60;;
71042;SDS011;58696;52.134;5.500;2023-03-01T03:16:45;8.32;;;6.43;;
71042;SDS011;58696;52.134;5.500;2023-03-01T03:19:16;7.65;;;5.75;;
71042;SDS011;58696;52.134;5.500;2023-03-01T03:21:46;8.30;;;6.07;;
71042;SDS011;58696;52.134;5.500;2023-03-01T03:24:13;10.45;;;6.30;;
71042;SDS011;58696;52.134;5.500;2023-03-01T03:26:42;9.27;;;5.90;;
71042;SDS011;58696;52.134;5.500;2023-03-01T03:29:10;10.80;;;6.93;;
71042;SDS011;58696;52.134;5.500;2023-03-01T03:31:39;11.15;;;6.28;;
71042;SDS011;58696;52.134;5.500;2023-03-01T03:34:08;9.88;;;5.95;;
71042;SDS011;58696;52.134;5.500;2023-03-01T03:36:44;10.13;;;6.40;;
71042;SDS011;58696;52.134;5.500;2023-03-01T03:39:10;9.38;;;6.80;;
71042;SDS011;58696;52.134;5.500;2023-03-01T03:44:08;10.07;;;6.45;;
71042;SDS011;58696;52.134;5.500;2023-03-01T03:46:36;10.45;;;5.70;;
71042;SDS011;58696;52.134;5.500;2023-03-01T03:49:03;9.35;;;5.60;;
71042;SDS011;58696;52.134;5.500;2023-03-01T03:51:32;9.05;;;6.32;;
71042;SDS011;58696;52.134;5.500;2023-03-01T03:54:01;10.05;;;6.43;;
71042;SDS011;58696;52.134;5.500;2023-03-01T03:56:28;12.50;;;6.05;;
71042;SDS011;58696;52.134;5.500;2023-03-01T03:59:00;8.38;;;6.18;;
71042;SDS011;58696;52.134;5.500;2023-03-01T04:01:26;7.70;;;5.90;;
71042;SDS011;58696;52.134;5.500;2023-03-01T04:03:53;12.63;;;6.10;;
71042;SDS011;58696;52.134;5.500;2023-03-01T04:06:20;9.80;;;6.43;;
71042;SDS011;58696;52.134;5.500;2023-03-01T04:08:49;7.82;;;5.65;;
71042;SDS011;58696;52.134;5.500;2023-03-01T04:11:26;7.57;;;5.57;;
71042;SDS011;58696;52.134;5.500;2023-03-01T04:13:54;12.32;;;6.13;;
71042;SDS011;58696;52.134;5.500;2023-03-01T04:16:24;6.88;;;5.53;;
71042;SDS011;58696;52.134;5.500;2023-03-01T04:18:56;7.47;;;6.15;;
71042;SDS011;58696;52.134;5.500;2023-03-01T04:21:28;12.65;;;6.38;;
71042;SDS011;58696;52.134;5.500;2023-03-01T04:23:57;10.40;;;5.85;;
71042;SDS011;58696;52.134;5.500;2023-03-01T04:26:23;11.35;;;6.30;;
71042;SDS011;58696;52.134;5.500;2023-03-01T04:28:55;11.43;;;6.00;;
71042;SDS011;58696;52.134;5.500;2023-03-01T04:31:22;12.00;;;6.28;;
71042;SDS011;58696;52.134;5.500;2023-03-01T04:33:50;13.65;;;6.63;;
71042;SDS011;58696;52.134;5.500;2023-03-01T04:36:22;10.63;;;6.63;;
71042;SDS011;58696;52.134;5.500;2023-03-01T04:38:50;10.18;;;6.07;;
71042;SDS011;58696;52.134;5.500;2023-03-01T04:41:23;8.85;;;6.20;;
71042;SDS011;58696;52.134;5.500;2023-03-01T04:43:53;7.93;;;6.18;;
71042;SDS011;58696;52.134;5.500;2023-03-01T04:46:20;11.70;;;6.55;;
71042;SDS011;58696;52.134;5.500;2023-03-01T04:48:47;8.20;;;6.22;;
71042;SDS011;58696;52.134;5.500;2023-03-01T04:51:16;9.65;;;6.20;;
71042;SDS011;58696;52.134;5.500;2023-03-01T04:53:48;8.10;;;6.22;;
71042;SDS011;58696;52.134;5.500;2023-03-01T04:56:14;10.50;;;7.28;;
71042;SDS011;58696;52.134;5.500;2023-03-01T04:58:44;8.38;;;5.60;;
71042;SDS011;58696;52.134;5.500;2023-03-01T05:01:18;10.32;;;6.45;;
71042;SDS011;58696;52.134;5.500;2023-03-01T05:03:47;8.63;;;6.13;;
71042;SDS011;58696;52.134;5.500;2023-03-01T05:06:19;9.32;;;6.13;;
71042;SDS011;58696;52.134;5.500;2023-03-01T05:08:50;8.93;;;5.85;;
71042;SDS011;58696;52.134;5.500;2023-03-01T05:11:19;11.23;;;5.60;;
71042;SDS011;58696;52.134;5.500;2023-03-01T05:13:49;8.02;;;6.10;;
71042;SDS011;58696;52.134;5.500;2023-03-01T05:16:21;7.53;;;6.03;;
71042;SDS011;58696;52.134;5.500;2023-03-01T05:18:47;9.07;;;6.10;;
71042;SDS011;58696;52.134;5.500;2023-03-01T05:21:16;7.95;;;6.10;;
71042;SDS011;58696;52.134;5.500;2023-03-01T05:23:46;9.60;;;6.60;;
71042;SDS011;58696;52.134;5.500;2023-03-01T05:26:15;12.88;;;6.35;;
71042;SDS011;58696;52.134;5.500;2023-03-01T05:28:54;9.38;;;6.25;;
71042;SDS011;58696;52.134;5.500;2023-03-01T05:31:26;9.80;;;6.03;;
71042;SDS011;58696;52.134;5.500;2023-03-01T05:33:53;11.55;;;6.43;;
71042;SDS011;58696;52.134;5.500;2023-03-01T05:36:19;13.52;;;6.38;;
71042;SDS011;58696;52.134;5.500;2023-03-01T05:38:46;11.18;;;5.88;;
71042;SDS011;58696;52.134;5.500;2023-03-01T05:41:13;8.02;;;5.72;;
71042;SDS011;58696;52.134;5.500;2023-03-01T05:43:43;8.32;;;5.88;;
71042;SDS011;58696;52.134;5.500;2023-03-01T05:46:11;7.60;;;5.88;;
71042;SDS011;58696;52.134;5.500;2023-03-01T05:48:42;7.03;;;5.43;;
71042;SDS011;58696;52.134;5.500;2023-03-01T05:51:11;12.13;;;5.60;;
71042;SDS011;58696;52.134;5.500;2023-03-01T05:53:38;8.40;;;6.15;;
71042;SDS011;58696;52.134;5.500;2023-03-01T05:56:04;8.82;;;5.88;;
71042;SDS011;58696;52.134;5.500;2023-03-01T05:58:32;11.02;;;5.75;;
71042;SDS011;58696;52.134;5.500;2023-03-01T06:00:58;10.50;;;5.72;;
71042;SDS011;58696;52.134;5.500;2023-03-01T06:03:25;8.45;;;5.85;;
71042;SDS011;58696;52.134;5.500;2023-03-01T06:05:55;8.82;;;5.65;;
71042;SDS011;58696;52.134;5.500;2023-03-01T06:08:23;13.30;;;7.28;;
71042;SDS011;58696;52.134;5.500;2023-03-01T06:10:52;21.33;;;10.45;;
71042;SDS011;58696;52.134;5.500;2023-03-01T06:13:19;11.98;;;6.43;;
71042;SDS011;58696;52.134;5.500;2023-03-01T06:15:52;11.80;;;7.25;;
71042;SDS011;58696;52.134;5.500;2023-03-01T06:18:21;7.35;;;5.57;;
71042;SDS011;58696;52.134;5.500;2023-03-01T06:20:56;11.15;;;7.03;;
71042;SDS011;58696;52.134;5.500;2023-03-01T06:23:25;32.13;;;12.65;;
71042;SDS011;58696;52.134;5.500;2023-03-01T06:25:54;26.40;;;12.20;;
71042;SDS011;58696;52.134;5.500;2023-03-01T06:28:21;23.42;;;10.40;;
71042;SDS011;58696;52.134;5.500;2023-03-01T06:30:49;18.33;;;9.32;;
71042;SDS011;58696;52.134;5.500;2023-03-01T06:33:18;19.90;;;8.38;;
71042;SDS011;58696;52.134;5.500;2023-03-01T06:35:46;16.60;;;8.50;;
71042;SDS011;58696;52.134;5.500;2023-03-01T06:38:15;22.05;;;9.88;;
71042;SDS011;58696;52.134;5.500;2023-03-01T06:40:45;16.45;;;9.18;;
71042;SDS011;58696;52.134;5.500;2023-03-01T06:43:21;12.18;;;7.53;;
71042;SDS011;58696;52.134;5.500;2023-03-01T06:45:50;14.65;;;7.03;;
71042;SDS011;58696;52.134;5.500;2023-03-01T06:48:19;12.80;;;7.03;;
71042;SDS011;58696;52.134;5.500;2023-03-01T06:50:45;10.70;;;6.22;;
71042;SDS011;58696;52.134;5.500;2023-03-01T06:53:13;10.73;;;7.10;;
71042;SDS011;58696;52.134;5.500;2023-03-01T06:55:39;14.85;;;6.63;;
71042;SDS011;58696;52.134;5.500;2023-03-01T06:58:09;12.10;;;7.28;;
71042;SDS011;58696;52.134;5.500;2023-03-01T07:00:39;11.35;;;6.45;;
71042;SDS011;58696;52.134;5.500;2023-03-01T07:03:07;8.23;;;6.13;;
71042;SDS011;58696;52.134;5.500;2023-03-01T07:05:37;14.20;;;6.65;;
71042;SDS011;58696;52.134;5.500;2023-03-01T07:08:03;13.65;;;6.50;;
71042;SDS011;58696;52.134;5.500;2023-03-01T07:10:30;10.30;;;6.43;;
71042;SDS011;58696;52.134;5.500;2023-03-01T07:13:04;9.90;;;6.75;;
71042;SDS011;58696;52.134;5.500;2023-03-01T07:15:32;11.00;;;6.22;;
71042;SDS011;58696;52.134;5.500;2023-03-01T07:17:59;11.23;;;6.10;;
71042;SDS011;58696;52.134;5.500;2023-03-01T07:20:26;12.63;;;6.88;;
71042;SDS011;58696;52.134;5.500;2023-03-01T07:22:57;9.45;;;6.03;;
71042;SDS011;58696;52.134;5.500;2023-03-01T07:25:27;13.70;;;6.65;;
71042;SDS011;58696;52.134;5.500;2023-03-01T07:27:55;12.43;;;6.20;;
71042;SDS011;58696;52.134;5.500;2023-03-01T07:30:24;11.48;;;6.20;;
71042;SDS011;58696;52.134;5.500;2023-03-01T07:32:54;10.52;;;7.13;;
71042;SDS011;58696;52.134;5.500;2023-03-01T07:35:22;13.25;;;6.63;;
71042;SDS011;58696;52.134;5.500;2023-03-01T07:37:49;9.10;;;7.20;;
71042;SDS011;58696;52.134;5.500;2023-03-01T07:40:16;17.95;;;11.48;;
71042;SDS011;58696;52.134;5.500;2023-03-01T07:42:45;13.27;;;8.48;;
71042;SDS011;58696;52.134;5.500;2023-03-01T07:45:12;16.13;;;8.68;;
71042;SDS011;58696;52.134;5.500;2023-03-01T07:47:44;12.68;;;7.07;;
71042;SDS011;58696;52.134;5.500;2023-03-01T07:50:12;13.48;;;7.70;;
71042;SDS011;58696;52.134;5.500;2023-03-01T07:52:47;39.30;;;13.20;;
71042;SDS011;58696;52.134;5.500;2023-03-01T07:55:17;27.85;;;12.27;;
71042;SDS011;58696;52.134;5.500;2023-03-01T07:57:48;29.67;;;10.48;;
71042;SDS011;58696;52.134;5.500;2023-03-01T08:00:15;41.25;;;14.55;;
71042;SDS011;58696;52.134;5.500;2023-03-01T08:02:42;35.50;;;12.88;;
71042;SDS011;58696;52.134;5.500;2023-03-01T08:05:09;58.58;;;17.08;;
71042;SDS011;58696;52.134;5.500;2023-03-01T08:07:36;24.08;;;11.65;;
71042;SDS011;58696;52.134;5.500;2023-03-01T08:10:03;17.95;;;8.68;;
71042;SDS011;58696;52.134;5.500;2023-03-01T08:12:33;22.67;;;10.50;;
71042;SDS011;58696;52.134;5.500;2023-03-01T08:14:59;24.45;;;9.02;;
71042;SDS011;58696;52.134;5.500;2023-03-01T08:17:26;12.10;;;7.40;;
71042;SDS011;58696;52.134;5.500;2023-03-01T08:19:58;15.73;;;7.88;;
71042;SDS011;58696;52.134;5.500;2023-03-01T08:22:29;20.27;;;7.75;;
71042;SDS011;58696;52.134;5.500;2023-03-01T08:24:56;11.70;;;7.32;;
71042;SDS011;58696;52.134;5.500;2023-03-01T08:27:22;13.30;;;6.28;;
71042;SDS011;58696;52.134;5.500;2023-03-01T08:29:51;11.63;;;7.07;;
71042;SDS011;58696;52.134;5.500;2023-03-01T08:32:18;15.85;;;7.82;;
71042;SDS011;58696;52.134;5.500;2023-03-01T08:34:47;27.73;;;8.77;;
71042;SDS011;58696;52.134;5.500;2023-03-01T08:37:14;22.17;;;6.97;;
71042;SDS011;58696;52.134;5.500;2023-03-01T08:39:40;13.15;;;7.43;;
71042;SDS011;58696;52.134;5.500;2023-03-01T08:42:07;10.35;;;6.72;;
71042;SDS011;58696;52.134;5.500;2023-03-01T08:44:35;15.75;;;7.05;;
71042;SDS011;58696;52.134;5.500;2023-03-01T08:47:02;14.95;;;6.53;;
71042;SDS011;58696;52.134;5.500;2023-03-01T08:49:31;10.93;;;4.75;;
71042;SDS011;58696;52.134;5.500;2023-03-01T08:51:58;6.32;;;5.25;;
71042;SDS011;58696;52.134;5.500;2023-03-01T08:54:27;7.07;;;5.20;;
71042;SDS011;58696;52.134;5.500;2023-03-01T08:56:57;7.60;;;4.30;;
71042;SDS011;58696;52.134;5.500;2023-03-01T08:59:25;6.75;;;5.28;;
71042;SDS011;58696;52.134;5.500;2023-03-01T09:01:53;6.72;;;4.63;;
71042;SDS011;58696;52.134;5.500;2023-03-01T09:04:19;6.10;;;4.63;;
71042;SDS011;58696;52.134;5.500;2023-03-01T09:06:46;5.93;;;4.03;;
71042;SDS011;58696;52.134;5.500;2023-03-01T09:09:16;6.65;;;4.28;;
71042;SDS011;58696;52.134;5.500;2023-03-01T09:14:14;9.95;;;5.00;;
71042;SDS011;58696;52.134;5.500;2023-03-01T09:16:43;6.50;;;4.32;;
71042;SDS011;58696;52.134;5.500;2023-03-01T09:19:10;4.65;;;3.92;;
71042;SDS011;58696;52.134;5.500;2023-03-01T09:21:39;6.75;;;4.43;;
71042;SDS011;58696;52.134;5.500;2023-03-01T09:24:09;6.05;;;4.43;;
71042;SDS011;58696;52.134;5.500;2023-03-01T09:26:39;6.47;;;4.28;;
71042;SDS011;58696;52.134;5.500;2023-03-01T09:29:06;11.32;;;4.82;;
71042;SDS011;58696;52.134;5.500;2023-03-01T09:31:32;5.43;;;4.18;;
71042;SDS011;58696;52.134;5.500;2023-03-01T09:34:01;24.48;;;8.77;;
71042;SDS011;58696;52.134;5.500;2023-03-01T09:36:28;11.55;;;6.28;;
71042;SDS011;58696;52.134;5.500;2023-03-01T09:38:57;16.05;;;6.53;;
71042;SDS011;58696;52.134;5.500;2023-03-01T09:41:36;12.20;;;5.23;;
71042;SDS011;58696;52.134;5.500;2023-03-01T09:46:49;8.00;;;4.65;;
71042;SDS011;58696;52.134;5.500;2023-03-01T09:49:19;5.50;;;3.47;;
71042;SDS011;58696;52.134;5.500;2023-03-01T09:51:56;4.05;;;3.08;;
71042;SDS011;58696;52.134;5.500;2023-03-01T09:54:27;5.03;;;3.27;;
71042;SDS011;58696;52.134;5.500;2023-03-01T10:05:05;9.40;;;3.35;;
71042;SDS011;58696;52.134;5.500;2023-03-01T10:10:35;4.05;;;3.13;;
71042;SDS011;58696;52.134;5.500;2023-03-01T10:16:01;4.00;;;3.15;;
71042;SDS011;58696;52.134;5.500;2023-03-01T10:18:37;11.57;;;2.85;;
71042;SDS011;58696;52.134;5.500;2023-03-01T10:21:17;4.32;;;2.75;;
71042;SDS011;58696;52.134;5.500;2023-03-01T10:23:46;6.72;;;3.10;;
71042;SDS011;58696;52.134;5.500;2023-03-01T10:29:12;5.00;;;2.42;;
71042;SDS011;58696;52.134;5.500;2023-03-01T10:34:30;4.38;;;2.05;;
71042;SDS011;58696;52.134;5.500;2023-03-01T10:37:16;7.57;;;2.42;;
71042;SDS011;58696;52.134;5.500;2023-03-01T10:42:35;5.95;;;2.97;;
71042;SDS011;58696;52.134;5.500;2023-03-01T10:50:42;4.93;;;2.47;;
71042;SDS011;58696;52.134;5.500;2023-03-01T10:53:19;3.58;;;2.45;;
71042;SDS011;58696;52.134;5.500;2023-03-01T10:55:56;10.70;;;2.58;;
71042;SDS011;58696;52.134;5.500;2023-03-01T10:59:04;4.03;;;2.70;;
71042;SDS011;58696;52.134;5.500;2023-03-01T11:01:32;2.63;;;2.00;;
71042;SDS011;58696;52.134;5.500;2023-03-01T11:06:39;4.68;;;2.72;;
71042;SDS011;58696;52.134;5.500;2023-03-01T11:09:14;2.70;;;2.30;;
71042;SDS011;58696;52.134;5.500;2023-03-01T11:11:41;3.00;;;2.30;;
71042;SDS011;58696;52.134;5.500;2023-03-01T11:14:18;2.95;;;2.08;;
71042;SDS011;58696;52.134;5.500;2023-03-01T11:20:31;6.57;;;3.20;;
71042;SDS011;58696;52.134;5.500;2023-03-01T11:23:05;2.72;;;2.05;;
71042;SDS011;58696;52.134;5.500;2023-03-01T11:25:59;4.32;;;2.35;;
71042;SDS011;58696;52.134;5.500;2023-03-01T11:28:27;5.60;;;2.30;;
71042;SDS011;58696;52.134;5.500;2023-03-01T11:36:28;2.42;;;2.22;;
71042;SDS011;58696;52.134;5.500;2023-03-01T11:39:23;3.17;;;2.60;;
71042;SDS011;58696;52.134;5.500;2023-03-01T11:42:00;3.30;;;2.70;;
71042;SDS011;58696;52.134;5.500;2023-03-01T11:44:51;3.85;;;2.72;;
71042;SDS011;58696;52.134;5.500;2023-03-01T12:37:06;4.45;;;2.83;;
71042;SDS011;58696;52.134;5.500;2023-03-01T12:42:01;3.75;;;2.40;;
71042;SDS011;58696;52.134;5.500;2023-03-01T12:48:12;2.83;;;2.60;;
71042;SDS011;58696;52.134;5.500;2023-03-01T12:50:49;3.67;;;2.10;;
71042;SDS011;58696;52.134;5.500;2023-03-01T12:53:21;3.60;;;2.60;;
71042;SDS011;58696;52.134;5.500;2023-03-01T12:55:50;3.45;;;2.70;;
71042;SDS011;58696;52.134;5.500;2023-03-01T12:58:32;5.18;;;3.15;;
71042;SDS011;58696;52.134;5.500;2023-03-01T13:06:38;3.78;;;2.65;;
71042;SDS011;58696;52.134;5.500;2023-03-01T13:09:19;5.70;;;3.40;;
71042;SDS011;58696;52.134;5.500;2023-03-01T13:11:49;7.10;;;3.60;;
71042;SDS011;58696;52.134;5.500;2023-03-01T13:14:34;14.85;;;5.15;;
71042;SDS011;58696;52.134;5.500;2023-03-01T13:17:29;18.85;;;7.25;;
71042;SDS011;58696;52.134;5.500;2023-03-01T13:19:59;3.70;;;2.20;;
71042;SDS011;58696;52.134;5.500;2023-03-01T13:22:28;3.33;;;2.97;;
71042;SDS011;58696;52.134;5.500;2023-03-01T13:25:02;9.27;;;2.85;;
71042;SDS011;58696;52.134;5.500;2023-03-01T13:28:51;4.60;;;2.90;;
71042;SDS011;58696;52.134;5.500;2023-03-01T13:31:01;3.10;;;2.70;;
71042;SDS011;58696;52.134;5.500;2023-03-01T13:35:57;9.77;;;3.88;;
71042;SDS011;58696;52.134;5.500;2023-03-01T13:41:04;9.18;;;5.55;;
71042;SDS011;58696;52.134;5.500;2023-03-01T13:43:34;6.15;;;3.25;;
71042;SDS011;58696;52.134;5.500;2023-03-01T13:46:15;10.70;;;5.85;;
71042;SDS011;58696;52.134;5.500;2023-03-01T13:48:53;10.90;;;5.05;;
71042;SDS011;58696;52.134;5.500;2023-03-01T13:51:23;9.60;;;5.28;;
71042;SDS011;58696;52.134;5.500;2023-03-01T13:53:55;5.03;;;3.45;;
71042;SDS011;58696;52.134;5.500;2023-03-01T13:56:33;6.07;;;4.50;;
71042;SDS011;58696;52.134;5.500;2023-03-01T13:59:19;7.82;;;4.47;;
71042;SDS011;58696;52.134;5.500;2023-03-01T14:01:54;8.88;;;4.22;;
71042;SDS011;58696;52.134;5.500;2023-03-01T14:04:26;12.55;;;5.00;;
71042;SDS011;58696;52.134;5.500;2023-03-01T14:07:10;5.47;;;3.80;;
71042;SDS011;58696;52.134;5.500;2023-03-01T14:09:45;6.43;;;4.07;;
71042;SDS011;58696;52.134;5.500;2023-03-01T14:20:14;4.05;;;3.00;;
71042;SDS011;58696;52.134;5.500;2023-03-01T14:22:44;8.05;;;4.13;;
71042;SDS011;58696;52.134;5.500;2023-03-01T14:30:45;5.50;;;3.60;;
71042;SDS011;58696;52.134;5.500;2023-03-01T14:38:30;4.13;;;3.15;;
71042;SDS011;58696;52.134;5.500;2023-03-01T14:41:12;8.18;;;3.60;;
71042;SDS011;58696;52.134;5.500;2023-03-01T14:43:44;9.75;;;3.53;;
71042;SDS011;58696;52.134;5.500;2023-03-01T14:46:35;4.20;;;2.85;;
71042;SDS011;58696;52.134;5.500;2023-03-01T14:49:14;3.13;;;2.35;;
71042;SDS011;58696;52.134;5.500;2023-03-01T14:51:49;5.20;;;3.35;;
71042;SDS011;58696;52.134;5.500;2023-03-01T14:54:41;4.15;;;3.20;;
71042;SDS011;58696;52.134;5.500;2023-03-01T14:59:55;5.38;;;3.65;;
71042;SDS011;58696;52.134;5.500;2023-03-01T15:02:31;10.23;;;3.00;;
71042;SDS011;58696;52.134;5.500;2023-03-01T15:05:00;6.47;;;3.22;;
71042;SDS011;58696;52.134;5.500;2023-03-01T15:07:34;3.85;;;2.90;;
71042;SDS011;58696;52.134;5.500;2023-03-01T15:10:06;8.38;;;3.47;;
71042;SDS011;58696;52.134;5.500;2023-03-01T15:12:41;6.10;;;3.28;;
71042;SDS011;58696;52.134;5.500;2023-03-01T15:15:30;4.03;;;2.78;;
71042;SDS011;58696;52.134;5.500;2023-03-01T15:18:02;4.47;;;2.92;;
71042;SDS011;58696;52.134;5.500;2023-03-01T15:20:31;3.50;;;2.75;;
71042;SDS011;58696;52.134;5.500;2023-03-01T15:23:02;6.95;;;2.70;;
71042;SDS011;58696;52.134;5.500;2023-03-01T15:25:32;4.28;;;2.85;;
71042;SDS011;58696;52.134;5.500;2023-03-01T15:28:00;12.23;;;3.35;;
71042;SDS011;58696;52.134;5.500;2023-03-01T15:30:34;3.70;;;2.83;;
71042;SDS011;58696;52.134;5.500;2023-03-01T15:35:57;5.22;;;3.08;;
71042;SDS011;58696;52.134;5.500;2023-03-01T15:38:34;7.88;;;4.32;;
71042;SDS011;58696;52.134;5.500;2023-03-01T15:41:27;5.10;;;3.17;;
71042;SDS011;58696;52.134;5.500;2023-03-01T15:43:55;5.60;;;3.13;;
71042;SDS011;58696;52.134;5.500;2023-03-01T15:49:05;4.70;;;3.33;;
71042;SDS011;58696;52.134;5.500;2023-03-01T15:51:45;6.35;;;3.72;;
71042;SDS011;58696;52.134;5.500;2023-03-01T15:54:17;7.25;;;3.35;;
71042;SDS011;58696;52.134;5.500;2023-03-01T15:56:46;6.43;;;3.05;;
71042;SDS011;58696;52.134;5.500;2023-03-01T15:59:15;3.92;;;3.00;;
71042;SDS011;58696;52.134;5.500;2023-03-01T16:01:44;4.38;;;2.85;;
71042;SDS011;58696;52.134;5.500;2023-03-01T16:04:15;4.93;;;3.53;;
71042;SDS011;58696;52.134;5.500;2023-03-01T16:06:49;15.10;;;3.95;;
71042;SDS011;58696;52.134;5.500;2023-03-01T16:09:23;9.27;;;4.18;;
71042;SDS011;58696;52.134;5.500;2023-03-01T16:11:53;13.18;;;5.35;;
71042;SDS011;58696;52.134;5.500;2023-03-01T16:14:20;11.68;;;4.78;;
71042;SDS011;58696;52.134;5.500;2023-03-01T16:16:50;5.93;;;3.85;;
71042;SDS011;58696;52.134;5.500;2023-03-01T16:19:19;4.35;;;3.45;;
71042;SDS011;58696;52.134;5.500;2023-03-01T16:21:47;8.57;;;3.45;;
71042;SDS011;58696;52.134;5.500;2023-03-01T16:26:44;7.20;;;4.15;;
71042;SDS011;58696;52.134;5.500;2023-03-01T16:29:11;7.47;;;3.05;;
71042;SDS011;58696;52.134;5.500;2023-03-01T16:31:37;5.88;;;4.03;;
71042;SDS011;58696;52.134;5.500;2023-03-01T16:34:04;11.07;;;3.70;;
71042;SDS011;58696;52.134;5.500;2023-03-01T16:36:31;6.07;;;3.28;;
71042;SDS011;58696;52.134;5.500;2023-03-01T16:38:58;5.60;;;3.42;;
71042;SDS011;58696;52.134;5.500;2023-03-01T16:41:27;5.68;;;3.10;;
71042;SDS011;58696;52.134;5.500;2023-03-01T16:43:53;14.93;;;5.18;;
71042;SDS011;58696;52.134;5.500;2023-03-01T16:46:21;6.88;;;4.10;;
71042;SDS011;58696;52.134;5.500;2023-03-01T16:48:52;7.78;;;4.10;;
71042;SDS011;58696;52.134;5.500;2023-03-01T16:51:20;5.78;;;3.85;;
71042;SDS011;58696;52.134;5.500;2023-03-01T16:53:47;8.00;;;3.53;;
71042;SDS011;58696;52.134;5.500;2023-03-01T16:56:14;3.92;;;3.15;;
71042;SDS011;58696;52.134;5.500;2023-03-01T16:58:43;4.82;;;3.40;;
71042;SDS011;58696;52.134;5.500;2023-03-01T17:01:12;10.35;;;3.60;;
71042;SDS011;58696;52.134;5.500;2023-03-01T17:03:44;4.97;;;3.53;;
71042;SDS011;58696;52.134;5.500;2023-03-01T17:06:16;4.47;;;3.30;;
71042;SDS011;58696;52.134;5.500;2023-03-01T17:08:46;5.53;;;3.33;;
71042;SDS011;58696;52.134;5.500;2023-03-01T17:11:16;4.20;;;3.10;;
71042;SDS011;58696;52.134;5.500;2023-03-01T17:13:44;5.00;;;3.38;;
71042;SDS011;58696;52.134;5.500;2023-03-01T17:16:14;6.50;;;3.17;;
71042;SDS011;58696;52.134;5.500;2023-03-01T17:18:49;3.65;;;2.97;;
71042;SDS011;58696;52.134;5.500;2023-03-01T17:21:15;3.90;;;3.28;;
71042;SDS011;58696;52.134;5.500;2023-03-01T17:23:43;6.57;;;3.28;;
71042;SDS011;58696;52.134;5.500;2023-03-01T17:26:12;3.65;;;3.03;;
71042;SDS011;58696;52.134;5.500;2023-03-01T17:28:42;6.10;;;3.58;;
71042;SDS011;58696;52.134;5.500;2023-03-01T17:31:09;6.07;;;3.90;;
71042;SDS011;58696;52.134;5.500;2023-03-01T17:33:40;5.13;;;3.30;;
71042;SDS011;58696;52.134;5.500;2023-03-01T17:36:06;4.90;;;3.65;;